sensor_id;sensor_type;location;lat;lon;timestamp;pressure;altitude;pressure_sealevel;temperature;humidity
75221;BME280;63802;53.232;6.570;2023-10-08T00:01:41;102245.56;;;12.43;100.00
75221;BME280;63802;53.232;6.570;2023-10-08T00:04:08;102264.75;;;12.43;100.00
75221;BME280;63802;53.232;6.570;2023-10-08T00:06:35;102261.88;;;12.39;100.00
75221;BME280;63802;53.232;6.570;2023-10-08T00:09:01;102265.41;;;12.40;100.00
75221;BME280;63802;53.232;6.570;2023-10-08T00:11:31;102263.59;;;12.44;100.00
75221;BME280;63802;53.232;6.570;2023-10-08T00:13:57;102267.47;;;12.43;100.00
75221;BME280;63802;53.232;6.570;2023-10-08T00:16:22;102252.19;;;12.42;100.00
75221;BME280;63802;53.232;6.570;2023-10-08T00:18:48;102274.53;;;12.44;100.00
75221;BME280;63802;53.232;6.570;2023-10-08T00:21:17;102274.75;;;12.39;100.00
75221;BME280;63802;53.232;6.570;2023-10-08T00:23:45;102242.91;;;12.34;100.00
75221;BME280;63802;53.232;6.570;2023-10-08T00:26:28;102259.59;;;12.41;100.00
75221;BME280;63802;53.232;6.570;2023-10-08T00:29:13;102258.78;;;12.41;100.00
75221;BME280;63802;53.232;6.570;2023-10-08T00:31:45;102266.22;;;12.40;100.00
75221;BME280;63802;53.232;6.570;2023-10-08T00:34:14;102260.41;;;12.42;100.00
75221;BME280;63802;53.232;6.570;2023-10-08T00:36:44;102262.00;;;12.43;100.00
75221;BME280;63802;53.232;6.570;2023-10-08T00:39:11;102267.00;;;12.41;100.00
75221;BME280;63802;53.232;6.570;2023-10-08T00:41:45;102288.91;;;12.41;100.00
75221;BME280;63802;53.232;6.570;2023-10-08T00:44:12;102279.91;;;12.40;100.00
75221;BME280;63802;53.232;6.570;2023-10-08T00:46:39;102270.66;;;12.33;100.00
75221;BME280;63802;53.232;6.570;2023-10-08T00:49:17;102259.94;;;12.40;100.00
75221;BME280;63802;53.232;6.570;2023-10-08T00:51:54;102246.25;;;12.40;100.00
75221;BME280;63802;53.232;6.570;2023-10-08T00:54:35;102259.72;;;12.45;100.00
75221;BME280;63802;53.232;6.570;2023-10-08T00:57:34;102257.19;;;12.40;100.00
75221;BME280;63802;53.232;6.570;2023-10-08T01:00:08;102269.72;;;12.41;100.00
75221;BME280;63802;53.232;6.570;2023-10-08T01:02:42;102272.00;;;12.39;100.00
75221;BME280;63802;53.232;6.570;2023-10-08T01:05:13;102279.09;;;12.40;100.00
75221;BME280;63802;53.232;6.570;2023-10-08T01:07:41;102282.97;;;12.39;100.00
75221;BME280;63802;53.232;6.570;2023-10-08T01:10:10;102300.34;;;12.43;100.00
75221;BME280;63802;53.232;6.570;2023-10-08T01:12:38;102298.28;;;12.40;100.00
75221;BME280;63802;53.232;6.570;2023-10-08T01:15:10;102297.09;;;12.41;100.00
75221;BME280;63802;53.232;6.570;2023-10-08T01:18:04;102290.50;;;12.42;100.00
75221;BME280;63802;53.232;6.570;2023-10-08T01:20:34;102270.28;;;12.34;100.00
75221;BME280;63802;53.232;6.570;2023-10-08T01:23:09;102300.53;;;12.38;100.00
75221;BME280;63802;53.232;6.570;2023-10-08T01:25:39;102317.44;;;12.40;100.00
75221;BME280;63802;53.232;6.570;2023-10-08T01:28:06;102295.53;;;12.40;100.00
75221;BME280;63802;53.232;6.570;2023-10-08T01:30:43;102286.84;;;12.38;100.00
75221;BME280;63802;53.232;6.570;2023-10-08T01:33:13;102248.28;;;12.31;100.00
75221;BME280;63802;53.232;6.570;2023-10-08T01:35:41;102254.69;;;12.35;100.00
75221;BME280;63802;53.232;6.570;2023-10-08T01:38:07;102275.66;;;12.31;100.00
75221;BME280;63802;53.232;6.570;2023-10-08T01:40:39;102296.97;;;12.25;100.00
75221;BME280;63802;53.232;6.570;2023-10-08T01:43:04;102304.38;;;12.25;100.00
75221;BME280;63802;53.232;6.570;2023-10-08T01:45:30;102307.56;;;12.27;100.00
75221;BME280;63802;53.232;6.570;2023-10-08T01:47:57;102301.19;;;12.23;100.00
75221;BME280;63802;53.232;6.570;2023-10-08T01:50:23;102307.25;;;12.28;100.00
75221;BME280;63802;53.232;6.570;2023-10-08T01:52:51;102323.31;;;12.30;100.00
75221;BME280;63802;53.232;6.570;2023-10-08T01:55:17;102325.59;;;12.28;100.00
75221;BME280;63802;53.232;6.570;2023-10-08T01:57:46;102328.94;;;12.33;100.00
75221;BME280;63802;53.232;6.570;2023-10-08T02:00:12;102331.31;;;12.35;100.00
75221;BME280;63802;53.232;6.570;2023-10-08T02:02:39;102321.03;;;12.32;100.00
75221;BME280;63802;53.232;6.570;2023-10-08T02:05:06;102320.25;;;12.31;100.00
75221;BME280;63802;53.232;6.570;2023-10-08T02:07:32;102316.38;;;12.32;100.00
75221;BME280;63802;53.232;6.570;2023-10-08T02:09:57;102310.91;;;12.32;100.00
75221;BME280;63802;53.232;6.570;2023-10-08T02:12:23;102316.84;;;12.34;100.00
75221;BME280;63802;53.232;6.570;2023-10-08T02:14:48;102319.91;;;12.33;100.00
75221;BME280;63802;53.232;6.570;2023-10-08T02:17:14;102324.59;;;12.32;100.00
75221;BME280;63802;53.232;6.570;2023-10-08T02:19:39;102326.53;;;12.32;100.00
75221;BME280;63802;53.232;6.570;2023-10-08T02:22:07;102326.06;;;12.30;100.00
75221;BME280;63802;53.232;6.570;2023-10-08T02:24:36;102333.47;;;12.29;100.00
75221;BME280;63802;53.232;6.570;2023-10-08T02:27:01;102327.19;;;12.29;100.00
75221;BME280;63802;53.232;6.570;2023-10-08T02:29:29;102331.88;;;12.28;100.00
75221;BME280;63802;53.232;6.570;2023-10-08T02:31:56;102322.88;;;12.28;100.00
75221;BME280;63802;53.232;6.570;2023-10-08T02:34:21;102334.13;;;12.26;100.00
75221;BME280;63802;53.232;6.570;2023-10-08T02:36:47;102351.38;;;12.27;100.00
75221;BME280;63802;53.232;6.570;2023-10-08T02:39:13;102345.88;;;12.27;100.00
75221;BME280;63802;53.232;6.570;2023-10-08T02:41:40;102346.59;;;12.24;100.00
75221;BME280;63802;53.232;6.570;2023-10-08T02:44:07;102351.38;;;12.27;100.00
75221;BME280;63802;53.232;6.570;2023-10-08T02:46:39;102354.31;;;12.22;100.00
75221;BME280;63802;53.232;6.570;2023-10-08T02:49:09;102354.19;;;12.18;100.00
75221;BME280;63802;53.232;6.570;2023-10-08T02:51:38;102358.19;;;12.21;100.00
75221;BME280;63802;53.232;6.570;2023-10-08T02:54:04;102354.31;;;12.22;100.00
75221;BME280;63802;53.232;6.570;2023-10-08T02:56:31;102355.66;;;12.16;100.00
75221;BME280;63802;53.232;6.570;2023-10-08T02:58:57;102366.41;;;12.21;100.00
75221;BME280;63802;53.232;6.570;2023-10-08T03:01:23;102367.41;;;12.16;100.00
75221;BME280;63802;53.232;6.570;2023-10-08T03:03:48;102376.19;;;12.22;100.00
75221;BME280;63802;53.232;6.570;2023-10-08T03:06:13;102359.00;;;12.21;100.00
75221;BME280;63802;53.232;6.570;2023-10-08T03:08:40;102356.13;;;12.18;100.00
75221;BME280;63802;53.232;6.570;2023-10-08T03:11:09;102359.00;;;12.21;100.00
75221;BME280;63802;53.232;6.570;2023-10-08T03:13:43;102356.94;;;12.18;100.00
75221;BME280;63802;53.232;6.570;2023-10-08T03:16:12;102361.59;;;12.18;100.00
75221;BME280;63802;53.232;6.570;2023-10-08T03:18:39;102366.63;;;12.16;100.00
75221;BME280;63802;53.232;6.570;2023-10-08T03:21:10;102371.41;;;12.19;100.00
75221;BME280;63802;53.232;6.570;2023-10-08T03:24:08;102373.22;;;12.15;100.00
75221;BME280;63802;53.232;6.570;2023-10-08T03:26:54;102375.47;;;12.13;100.00
75221;BME280;63802;53.232;6.570;2023-10-08T03:29:21;102369.91;;;12.09;100.00
75221;BME280;63802;53.232;6.570;2023-10-08T03:31:46;102374.34;;;12.14;100.00
75221;BME280;63802;53.232;6.570;2023-10-08T03:34:12;102384.97;;;12.15;100.00
75221;BME280;63802;53.232;6.570;2023-10-08T03:36:41;102380.75;;;12.18;100.00
75221;BME280;63802;53.232;6.570;2023-10-08T03:39:18;102390.22;;;12.20;100.00
75221;BME280;63802;53.232;6.570;2023-10-08T03:41:45;102393.50;;;12.14;100.00
75221;BME280;63802;53.232;6.570;2023-10-08T03:44:29;102421.16;;;12.21;100.00
75221;BME280;63802;53.232;6.570;2023-10-08T03:46:55;102423.53;;;12.22;100.00
75221;BME280;63802;53.232;6.570;2023-10-08T03:49:22;102428.22;;;12.22;100.00
75221;BME280;63802;53.232;6.570;2023-10-08T03:51:48;102432.56;;;12.23;100.00
75221;BME280;63802;53.232;6.570;2023-10-08T03:54:18;102429.34;;;12.21;100.00
75221;BME280;63802;53.232;6.570;2023-10-08T03:56:45;102437.09;;;12.19;100.00
75221;BME280;63802;53.232;6.570;2023-10-08T03:59:15;102453.34;;;12.24;100.00
75221;BME280;63802;53.232;6.570;2023-10-08T04:01:56;102449.09;;;12.26;100.00
75221;BME280;63802;53.232;6.570;2023-10-08T04:04:25;102446.72;;;12.25;100.00
75221;BME280;63802;53.232;6.570;2023-10-08T04:07:08;102463.13;;;12.25;100.00
75221;BME280;63802;53.232;6.570;2023-10-08T04:09:52;102463.13;;;12.25;100.00
75221;BME280;63802;53.232;6.570;2023-10-08T04:12:31;102461.66;;;12.27;100.00
75221;BME280;63802;53.232;6.570;2023-10-08T04:15:03;102488.69;;;12.29;100.00
75221;BME280;63802;53.232;6.570;2023-10-08T04:17:38;102498.53;;;12.30;100.00
75221;BME280;63802;53.232;6.570;2023-10-08T04:20:15;102482.63;;;12.23;100.00
75221;BME280;63802;53.232;6.570;2023-10-08T04:22:59;102475.34;;;12.27;100.00
75221;BME280;63802;53.232;6.570;2023-10-08T04:25:29;102461.31;;;12.29;100.00
75221;BME280;63802;53.232;6.570;2023-10-08T04:27:56;102437.38;;;12.26;100.00
75221;BME280;63802;53.232;6.570;2023-10-08T04:30:42;102480.47;;;12.29;100.00
75221;BME280;63802;53.232;6.570;2023-10-08T04:33:10;102489.84;;;12.28;100.00
75221;BME280;63802;53.232;6.570;2023-10-08T04:35:39;102481.84;;;12.23;100.00
75221;BME280;63802;53.232;6.570;2023-10-08T04:38:14;102478.91;;;12.28;100.00
75221;BME280;63802;53.232;6.570;2023-10-08T04:40:42;102471.41;;;12.16;100.00
75221;BME280;63802;53.232;6.570;2023-10-08T04:43:14;102491.31;;;12.25;100.00
75221;BME280;63802;53.232;6.570;2023-10-08T04:45:41;102493.44;;;12.20;100.00
75221;BME280;63802;53.232;6.570;2023-10-08T04:48:06;102497.31;;;12.19;100.00
75221;BME280;63802;53.232;6.570;2023-10-08T04:50:38;102492.50;;;12.16;100.00
75221;BME280;63802;53.232;6.570;2023-10-08T04:53:04;102506.66;;;12.18;100.00
75221;BME280;63802;53.232;6.570;2023-10-08T04:55:34;102502.66;;;12.15;100.00
75221;BME280;63802;53.232;6.570;2023-10-08T04:58:00;102493.97;;;12.13;100.00
75221;BME280;63802;53.232;6.570;2023-10-08T05:00:30;102476.41;;;12.14;100.00
75221;BME280;63802;53.232;6.570;2023-10-08T05:03:19;102474.00;;;12.13;100.00
75221;BME280;63802;53.232;6.570;2023-10-08T05:05:45;102465.78;;;12.13;100.00
75221;BME280;63802;53.232;6.570;2023-10-08T05:08:27;102463.88;;;12.13;100.00
75221;BME280;63802;53.232;6.570;2023-10-08T05:11:10;102452.97;;;12.04;100.00
75221;BME280;63802;53.232;6.570;2023-10-08T05:13:49;102464.88;;;12.08;100.00
75221;BME280;63802;53.232;6.570;2023-10-08T05:16:26;102464.41;;;12.06;100.00
75221;BME280;63802;53.232;6.570;2023-10-08T05:19:08;102468.44;;;12.00;100.00
75221;BME280;63802;53.232;6.570;2023-10-08T05:21:50;102475.53;;;12.01;100.00
75221;BME280;63802;53.232;6.570;2023-10-08T05:24:28;102464.31;;;11.94;100.00
75221;BME280;63802;53.232;6.570;2023-10-08T05:27:03;102453.69;;;11.93;100.00
75221;BME280;63802;53.232;6.570;2023-10-08T05:29:55;102458.84;;;11.94;100.00
75221;BME280;63802;53.232;6.570;2023-10-08T05:32:39;102462.22;;;11.91;100.00
75221;BME280;63802;53.232;6.570;2023-10-08T05:35:24;102463.50;;;11.94;100.00
75221;BME280;63802;53.232;6.570;2023-10-08T05:38:04;102458.84;;;11.94;100.00
75221;BME280;63802;53.232;6.570;2023-10-08T05:40:41;102466.59;;;11.92;100.00
75221;BME280;63802;53.232;6.570;2023-10-08T05:43:26;102483.00;;;11.92;100.00
75221;BME280;63802;53.232;6.570;2023-10-08T05:46:14;102486.84;;;11.91;100.00
75221;BME280;63802;53.232;6.570;2023-10-08T05:51:42;102503.94;;;11.88;100.00
75221;BME280;63802;53.232;6.570;2023-10-08T05:54:24;102511.31;;;11.88;100.00
75221;BME280;63802;53.232;6.570;2023-10-08T05:57:05;102498.97;;;11.82;100.00
75221;BME280;63802;53.232;6.570;2023-10-08T05:59:40;102478.56;;;11.79;100.00
75221;BME280;63802;53.232;6.570;2023-10-08T06:04:54;102509.13;;;11.81;100.00
75221;BME280;63802;53.232;6.570;2023-10-08T06:07:42;102512.78;;;11.85;100.00
75221;BME280;63802;53.232;6.570;2023-10-08T06:10:16;102523.13;;;11.80;100.00
75221;BME280;63802;53.232;6.570;2023-10-08T06:13:05;102499.78;;;11.82;100.00
75221;BME280;63802;53.232;6.570;2023-10-08T06:15:43;102493.34;;;11.78;100.00
75221;BME280;63802;53.232;6.570;2023-10-08T06:18:31;102505.56;;;11.81;100.00
75221;BME280;63802;53.232;6.570;2023-10-08T06:21:02;102508.00;;;11.82;100.00
75221;BME280;63802;53.232;6.570;2023-10-08T06:23:36;102503.63;;;11.81;100.00
75221;BME280;63802;53.232;6.570;2023-10-08T06:26:03;102517.00;;;11.83;100.00
75221;BME280;63802;53.232;6.570;2023-10-08T06:28:43;102542.22;;;11.88;100.00
75221;BME280;63802;53.232;6.570;2023-10-08T06:31:09;102547.69;;;11.88;100.00
75221;BME280;63802;53.232;6.570;2023-10-08T06:33:42;102550.13;;;11.90;100.00
75221;BME280;63802;53.232;6.570;2023-10-08T06:36:07;102540.94;;;11.94;100.00
75221;BME280;63802;53.232;6.570;2023-10-08T06:38:37;102539.06;;;12.07;100.00
75221;BME280;63802;53.232;6.570;2023-10-08T06:41:05;102524.41;;;12.12;100.00
75221;BME280;63802;53.232;6.570;2023-10-08T06:43:35;102537.59;;;12.09;100.00
75221;BME280;63802;53.232;6.570;2023-10-08T06:46:04;102547.91;;;12.13;100.00
75221;BME280;63802;53.232;6.570;2023-10-08T06:48:32;102551.25;;;12.18;100.00
75221;BME280;63802;53.232;6.570;2023-10-08T06:51:00;102552.06;;;12.19;100.00
75221;BME280;63802;53.232;6.570;2023-10-08T06:53:35;102534.31;;;12.25;100.00
75221;BME280;63802;53.232;6.570;2023-10-08T06:56:04;102535.38;;;12.32;100.00
75221;BME280;63802;53.232;6.570;2023-10-08T06:58:32;102551.16;;;12.35;100.00
75221;BME280;63802;53.232;6.570;2023-10-08T07:00:58;102531.19;;;12.35;100.00
75221;BME280;63802;53.232;6.570;2023-10-08T07:03:24;102531.13;;;12.43;100.00
75221;BME280;63802;53.232;6.570;2023-10-08T07:05:51;102543.13;;;12.51;100.00
75221;BME280;63802;53.232;6.570;2023-10-08T07:08:23;102548.06;;;12.57;100.00
75221;BME280;63802;53.232;6.570;2023-10-08T07:10:53;102566.41;;;12.65;100.00
75221;BME280;63802;53.232;6.570;2023-10-08T07:13:22;102551.09;;;12.64;100.00
75221;BME280;63802;53.232;6.570;2023-10-08T07:15:49;102566.00;;;12.75;100.00
75221;BME280;63802;53.232;6.570;2023-10-08T07:18:15;102568.19;;;12.82;100.00
75221;BME280;63802;53.232;6.570;2023-10-08T07:20:51;102603.97;;;12.86;100.00
75221;BME280;63802;53.232;6.570;2023-10-08T07:23:20;102614.25;;;12.89;100.00
75221;BME280;63802;53.232;6.570;2023-10-08T07:25:58;102623.72;;;12.91;100.00
75221;BME280;63802;53.232;6.570;2023-10-08T07:28:44;102628.28;;;12.87;100.00
75221;BME280;63802;53.232;6.570;2023-10-08T07:31:19;102635.22;;;12.85;100.00
75221;BME280;63802;53.232;6.570;2023-10-08T07:33:53;102631.50;;;12.89;100.00
75221;BME280;63802;53.232;6.570;2023-10-08T07:36:26;102616.19;;;12.88;100.00
75221;BME280;63802;53.232;6.570;2023-10-08T07:38:52;102627.34;;;12.83;100.00
75221;BME280;63802;53.232;6.570;2023-10-08T07:41:17;102658.78;;;12.86;100.00
75221;BME280;63802;53.232;6.570;2023-10-08T07:43:48;102691.13;;;12.92;100.00
75221;BME280;63802;53.232;6.570;2023-10-08T07:46:25;102681.63;;;12.90;100.00
75221;BME280;63802;53.232;6.570;2023-10-08T07:48:56;102656.31;;;12.93;100.00
75221;BME280;63802;53.232;6.570;2023-10-08T07:51:24;102640.06;;;12.88;100.00
75221;BME280;63802;53.232;6.570;2023-10-08T07:53:51;102628.91;;;12.93;100.00
75221;BME280;63802;53.232;6.570;2023-10-08T07:56:24;102627.75;;;12.94;100.00
75221;BME280;63802;53.232;6.570;2023-10-08T07:58:51;102615.00;;;12.98;100.00
75221;BME280;63802;53.232;6.570;2023-10-08T08:01:16;102589.25;;;12.90;100.00
75221;BME280;63802;53.232;6.570;2023-10-08T08:03:42;102586.22;;;13.12;100.00
75221;BME280;63802;53.232;6.570;2023-10-08T08:06:08;102575.16;;;13.21;100.00
75221;BME280;63802;53.232;6.570;2023-10-08T08:08:39;102583.81;;;13.43;100.00
75221;BME280;63802;53.232;6.570;2023-10-08T08:11:06;102596.41;;;13.57;100.00
75221;BME280;63802;53.232;6.570;2023-10-08T08:13:41;102598.13;;;13.61;100.00
75221;BME280;63802;53.232;6.570;2023-10-08T08:16:11;102625.13;;;13.71;100.00
75221;BME280;63802;53.232;6.570;2023-10-08T08:18:47;102658.19;;;13.87;100.00
75221;BME280;63802;53.232;6.570;2023-10-08T08:21:14;102706.84;;;13.98;100.00
75221;BME280;63802;53.232;6.570;2023-10-08T08:23:47;102710.38;;;13.99;100.00
75221;BME280;63802;53.232;6.570;2023-10-08T08:26:21;102748.34;;;13.97;100.00
75221;BME280;63802;53.232;6.570;2023-10-08T08:28:58;102765.78;;;14.01;100.00
75221;BME280;63802;53.232;6.570;2023-10-08T08:31:25;102774.47;;;14.03;100.00
75221;BME280;63802;53.232;6.570;2023-10-08T08:33:55;102791.59;;;14.00;100.00
75221;BME280;63802;53.232;6.570;2023-10-08T08:36:29;102821.81;;;14.00;100.00
75221;BME280;63802;53.232;6.570;2023-10-08T08:38:55;102808.53;;;14.02;100.00
75221;BME280;63802;53.232;6.570;2023-10-08T08:41:20;102792.97;;;13.94;100.00
75221;BME280;63802;53.232;6.570;2023-10-08T08:43:52;102808.53;;;14.02;100.00
75221;BME280;63802;53.232;6.570;2023-10-08T08:46:41;102776.75;;;14.01;100.00
75221;BME280;63802;53.232;6.570;2023-10-08T08:49:08;102798.41;;;14.15;100.00
75221;BME280;63802;53.232;6.570;2023-10-08T08:51:34;102781.28;;;14.18;100.00
75221;BME280;63802;53.232;6.570;2023-10-08T08:54:01;102793.59;;;14.32;100.00
75221;BME280;63802;53.232;6.570;2023-10-08T08:56:36;102794.16;;;14.38;100.00
75221;BME280;63802;53.232;6.570;2023-10-08T08:59:07;102798.63;;;14.42;100.00
75221;BME280;63802;53.232;6.570;2023-10-08T09:01:54;102796.59;;;14.51;100.00
75221;BME280;63802;53.232;6.570;2023-10-08T09:04:27;102795.22;;;14.57;100.00
75221;BME280;63802;53.232;6.570;2023-10-08T09:06:54;102802.56;;;14.65;100.00
75221;BME280;63802;53.232;6.570;2023-10-08T09:09:19;102782.06;;;14.63;100.00
75221;BME280;63802;53.232;6.570;2023-10-08T09:11:52;102805.09;;;14.70;100.00
75221;BME280;63802;53.232;6.570;2023-10-08T09:14:20;102790.63;;;14.61;100.00
75221;BME280;63802;53.232;6.570;2023-10-08T09:16:47;102786.53;;;14.55;100.00
75221;BME280;63802;53.232;6.570;2023-10-08T09:19:12;102783.91;;;14.71;100.00
75221;BME280;63802;53.232;6.570;2023-10-08T09:24:33;102802.19;;;14.55;100.00
75221;BME280;63802;53.232;6.570;2023-10-08T09:27:04;102813.09;;;14.51;100.00
75221;BME280;63802;53.232;6.570;2023-10-08T09:29:29;102811.59;;;14.54;100.00
75221;BME280;63802;53.232;6.570;2023-10-08T09:31:59;102813.13;;;14.75;100.00
75221;BME280;63802;53.232;6.570;2023-10-08T09:34:29;102798.09;;;14.97;100.00
75221;BME280;63802;53.232;6.570;2023-10-08T09:36:57;102792.50;;;15.06;100.00
75221;BME280;63802;53.232;6.570;2023-10-08T09:39:25;102799.94;;;15.05;100.00
75221;BME280;63802;53.232;6.570;2023-10-08T09:41:55;102800.06;;;15.21;100.00
75221;BME280;63802;53.232;6.570;2023-10-08T09:44:23;102796.13;;;15.34;100.00
75221;BME280;63802;53.232;6.570;2023-10-08T09:49:28;102798.34;;;15.80;100.00
75221;BME280;63802;53.232;6.570;2023-10-08T09:51:59;102798.16;;;15.73;100.00
75221;BME280;63802;53.232;6.570;2023-10-08T09:54:29;102805.41;;;15.93;100.00
75221;BME280;63802;53.232;6.570;2023-10-08T09:57:02;102809.41;;;15.96;100.00
75221;BME280;63802;53.232;6.570;2023-10-08T09:59:29;102806.81;;;15.87;100.00
75221;BME280;63802;53.232;6.570;2023-10-08T10:01:55;102801.94;;;15.69;100.00
75221;BME280;63802;53.232;6.570;2023-10-08T10:04:24;102822.88;;;15.85;100.00
75221;BME280;63802;53.232;6.570;2023-10-08T10:06:54;102801.59;;;15.70;100.00
75221;BME280;63802;53.232;6.570;2023-10-08T10:09:24;102823.78;;;15.89;100.00
75221;BME280;63802;53.232;6.570;2023-10-08T10:11:51;102839.72;;;15.84;100.00
75221;BME280;63802;53.232;6.570;2023-10-08T10:14:23;102828.63;;;15.80;100.00
75221;BME280;63802;53.232;6.570;2023-10-08T10:19:40;102829.72;;;15.91;100.00
75221;BME280;63802;53.232;6.570;2023-10-08T10:22:14;102839.41;;;16.13;100.00
75221;BME280;63802;53.232;6.570;2023-10-08T10:24:43;102842.75;;;16.34;100.00
75221;BME280;63802;53.232;6.570;2023-10-08T10:27:14;102842.13;;;16.53;100.00
75221;BME280;63802;53.232;6.570;2023-10-08T10:29:44;102813.31;;;16.66;100.00
75221;BME280;63802;53.232;6.570;2023-10-08T10:32:14;102819.69;;;16.70;100.00
75221;BME280;63802;53.232;6.570;2023-10-08T10:34:42;102820.44;;;16.67;100.00
75221;BME280;63802;53.232;6.570;2023-10-08T10:37:18;102800.34;;;16.39;100.00
75221;BME280;63802;53.232;6.570;2023-10-08T10:39:57;102817.94;;;16.34;100.00
75221;BME280;63802;53.232;6.570;2023-10-08T10:42:27;102814.34;;;16.46;100.00
75221;BME280;63802;53.232;6.570;2023-10-08T10:44:54;102808.44;;;16.32;100.00
75221;BME280;63802;53.232;6.570;2023-10-08T10:47:36;102802.41;;;16.42;100.00
75221;BME280;63802;53.232;6.570;2023-10-08T10:50:26;102784.56;;;16.51;100.00
75221;BME280;63802;53.232;6.570;2023-10-08T10:52:56;102766.81;;;16.64;100.00
75221;BME280;63802;53.232;6.570;2023-10-08T10:55:22;102767.78;;;16.72;100.00
75221;BME280;63802;53.232;6.570;2023-10-08T10:58:18;102746.41;;;16.53;100.00
75221;BME280;63802;53.232;6.570;2023-10-08T11:00:49;102761.53;;;16.75;100.00
75221;BME280;63802;53.232;6.570;2023-10-08T11:03:22;102727.44;;;16.05;100.00
75221;BME280;63802;53.232;6.570;2023-10-08T11:05:57;102700.25;;;16.35;100.00
75221;BME280;63802;53.232;6.570;2023-10-08T11:08:25;102674.66;;;16.19;100.00
75221;BME280;63802;53.232;6.570;2023-10-08T11:10:52;102713.81;;;15.96;100.00
75221;BME280;63802;53.232;6.570;2023-10-08T11:13:45;102746.22;;;16.31;100.00
75221;BME280;63802;53.232;6.570;2023-10-08T11:16:25;102733.50;;;16.26;100.00
75221;BME280;63802;53.232;6.570;2023-10-08T11:18:54;102729.94;;;16.26;100.00
75221;BME280;63802;53.232;6.570;2023-10-08T11:21:31;102756.13;;;16.20;100.00
75221;BME280;63802;53.232;6.570;2023-10-08T11:23:59;102744.41;;;16.23;100.00
75221;BME280;63802;53.232;6.570;2023-10-08T11:26:26;102741.78;;;16.26;100.00
75221;BME280;63802;53.232;6.570;2023-10-08T11:29:05;102760.00;;;16.31;100.00
75221;BME280;63802;53.232;6.570;2023-10-08T11:31:40;102751.47;;;16.36;100.00
75221;BME280;63802;53.232;6.570;2023-10-08T11:34:06;102734.94;;;16.51;100.00
75221;BME280;63802;53.232;6.570;2023-10-08T11:36:37;102695.81;;;16.30;100.00
75221;BME280;63802;53.232;6.570;2023-10-08T11:39:21;102744.34;;;16.97;100.00
75221;BME280;63802;53.232;6.570;2023-10-08T11:41:56;102751.19;;;17.03;100.00
75221;BME280;63802;53.232;6.570;2023-10-08T11:44:22;102751.50;;;17.17;100.00
75221;BME280;63802;53.232;6.570;2023-10-08T11:46:57;102738.53;;;17.02;100.00
75221;BME280;63802;53.232;6.570;2023-10-08T11:49:36;102699.06;;;16.98;100.00
75221;BME280;63802;53.232;6.570;2023-10-08T11:52:11;102727.06;;;17.00;100.00
75221;BME280;63802;53.232;6.570;2023-10-08T11:55:06;102688.31;;;16.77;100.00
75221;BME280;63802;53.232;6.570;2023-10-08T11:57:31;102712.56;;;17.03;100.00
75221;BME280;63802;53.232;6.570;2023-10-08T12:00:01;102712.25;;;16.89;100.00
75221;BME280;63802;53.232;6.570;2023-10-08T12:02:42;102688.75;;;16.80;100.00
75221;BME280;63802;53.232;6.570;2023-10-08T12:05:09;102735.25;;;16.97;100.00
75221;BME280;63802;53.232;6.570;2023-10-08T12:08:10;102696.56;;;16.93;100.00
75221;BME280;63802;53.232;6.570;2023-10-08T12:10:39;102694.63;;;16.78;100.00
75221;BME280;63802;53.232;6.570;2023-10-08T12:13:12;102730.97;;;16.99;100.00
75221;BME280;63802;53.232;6.570;2023-10-08T12:15:38;102699.19;;;16.39;100.00
75221;BME280;63802;53.232;6.570;2023-10-08T12:18:05;102703.50;;;16.52;100.00
75221;BME280;63802;53.232;6.570;2023-10-08T12:20:37;102737.94;;;16.77;100.00
75221;BME280;63802;53.232;6.570;2023-10-08T12:23:06;102740.00;;;16.81;100.00
75221;BME280;63802;53.232;6.570;2023-10-08T12:25:32;102735.41;;;16.69;100.00
75221;BME280;63802;53.232;6.570;2023-10-08T12:28:15;102746.38;;;17.00;100.00
75221;BME280;63802;53.232;6.570;2023-10-08T12:30:41;102731.50;;;17.05;100.00
75221;BME280;63802;53.232;6.570;2023-10-08T12:33:20;102757.34;;;17.31;100.00
75221;BME280;63802;53.232;6.570;2023-10-08T12:35:50;102747.00;;;17.63;100.00
75221;BME280;63802;53.232;6.570;2023-10-08T12:38:21;102742.75;;;18.30;100.00
75221;BME280;63802;53.232;6.570;2023-10-08T12:40:50;102747.47;;;17.88;100.00
75221;BME280;63802;53.232;6.570;2023-10-08T12:43:39;102690.41;;;18.18;100.00
75221;BME280;63802;53.232;6.570;2023-10-08T12:46:15;102735.00;;;18.39;100.00
75221;BME280;63802;53.232;6.570;2023-10-08T12:48:47;102710.72;;;17.84;100.00
75221;BME280;63802;53.232;6.570;2023-10-08T12:51:15;102715.41;;;18.25;100.00
75221;BME280;63802;53.232;6.570;2023-10-08T12:53:41;102731.13;;;17.98;100.00
75221;BME280;63802;53.232;6.570;2023-10-08T12:56:27;102682.66;;;17.43;100.00
75221;BME280;63802;53.232;6.570;2023-10-08T12:59:10;102728.09;;;17.65;100.00
75221;BME280;63802;53.232;6.570;2023-10-08T13:01:46;102723.53;;;17.73;100.00
75221;BME280;63802;53.232;6.570;2023-10-08T13:04:18;102728.28;;;17.37;100.00
75221;BME280;63802;53.232;6.570;2023-10-08T13:07:13;102732.28;;;17.40;100.00
75221;BME280;63802;53.232;6.570;2023-10-08T13:09:44;102679.19;;;17.08;100.00
75221;BME280;63802;53.232;6.570;2023-10-08T13:12:29;102691.38;;;17.07;100.00
75221;BME280;63802;53.232;6.570;2023-10-08T13:14:54;102676.69;;;16.68;100.00
75221;BME280;63802;53.232;6.570;2023-10-08T13:17:20;102703.97;;;16.89;100.00
75221;BME280;63802;53.232;6.570;2023-10-08T13:19:45;102719.41;;;17.28;100.00